sensor_id;sensor_type;location;lat;lon;timestamp;temperature;humidity
36654;DHT22;22650;49.350;20.898;2022-12-07T00:01:17;2.40;99.90
36654;DHT22;22650;49.350;20.898;2022-12-07T00:03:54;2.50;99.90
36654;DHT22;22650;49.350;20.898;2022-12-07T00:06:29;2.40;99.90
36654;DHT22;22650;49.350;20.898;2022-12-07T00:09:03;2.40;99.90
36654;DHT22;22650;49.350;20.898;2022-12-07T00:11:36;2.50;99.90
36654;DHT22;22650;49.350;20.898;2022-12-07T00:14:12;2.50;99.90
36654;DHT22;22650;49.350;20.898;2022-12-07T00:16:46;2.50;99.90
36654;DHT22;22650;49.350;20.898;2022-12-07T00:19:23;2.50;99.90
36654;DHT22;22650;49.350;20.898;2022-12-07T00:21:56;2.60;99.90
36654;DHT22;22650;49.350;20.898;2022-12-07T00:24:29;2.50;99.90
36654;DHT22;22650;49.350;20.898;2022-12-07T00:27:03;2.50;99.90
36654;DHT22;22650;49.350;20.898;2022-12-07T00:29:36;2.50;99.90
36654;DHT22;22650;49.350;20.898;2022-12-07T00:32:09;2.50;99.90
36654;DHT22;22650;49.350;20.898;2022-12-07T00:34:44;2.50;99.90
36654;DHT22;22650;49.350;20.898;2022-12-07T00:37:18;2.50;99.90
36654;DHT22;22650;49.350;20.898;2022-12-07T00:39:53;2.50;99.90
36654;DHT22;22650;49.350;20.898;2022-12-07T00:42:26;2.50;99.90
36654;DHT22;22650;49.350;20.898;2022-12-07T00:44:59;2.50;99.90
36654;DHT22;22650;49.350;20.898;2022-12-07T00:47:33;2.50;99.90
36654;DHT22;22650;49.350;20.898;2022-12-07T00:50:08;2.50;99.90
36654;DHT22;22650;49.350;20.898;2022-12-07T00:52:42;2.50;99.90
36654;DHT22;22650;49.350;20.898;2022-12-07T00:55:15;2.50;99.90
36654;DHT22;22650;49.350;20.898;2022-12-07T00:57:49;2.50;99.90
36654;DHT22;22650;49.350;20.898;2022-12-07T01:00:22;2.50;99.90
36654;DHT22;22650;49.350;20.898;2022-12-07T01:02:56;2.50;99.90
36654;DHT22;22650;49.350;20.898;2022-12-07T01:05:31;2.50;99.90
36654;DHT22;22650;49.350;20.898;2022-12-07T01:08:04;2.50;99.90
36654;DHT22;22650;49.350;20.898;2022-12-07T01:10:38;2.50;99.90
36654;DHT22;22650;49.350;20.898;2022-12-07T01:13:11;2.50;99.90
36654;DHT22;22650;49.350;20.898;2022-12-07T01:15:45;2.50;99.90
36654;DHT22;22650;49.350;20.898;2022-12-07T01:18:18;2.50;99.90
36654;DHT22;22650;49.350;20.898;2022-12-07T01:21:01;2.50;99.90
36654;DHT22;22650;49.350;20.898;2022-12-07T01:23:35;2.40;99.90
36654;DHT22;22650;49.350;20.898;2022-12-07T01:26:11;2.40;99.90
36654;DHT22;22650;49.350;20.898;2022-12-07T01:28:44;2.40;99.90
36654;DHT22;22650;49.350;20.898;2022-12-07T01:31:19;2.40;99.90
36654;DHT22;22650;49.350;20.898;2022-12-07T01:33:56;2.40;99.90
36654;DHT22;22650;49.350;20.898;2022-12-07T01:36:32;2.30;99.90
36654;DHT22;22650;49.350;20.898;2022-12-07T01:39:08;2.30;99.90
36654;DHT22;22650;49.350;20.898;2022-12-07T01:41:42;2.30;99.90
36654;DHT22;22650;49.350;20.898;2022-12-07T01:44:21;2.20;99.90
36654;DHT22;22650;49.350;20.898;2022-12-07T01:46:56;2.20;99.90
36654;DHT22;22650;49.350;20.898;2022-12-07T01:49:34;2.20;99.90
36654;DHT22;22650;49.350;20.898;2022-12-07T01:52:16;2.20;99.90
36654;DHT22;22650;49.350;20.898;2022-12-07T01:54:53;2.20;99.90
36654;DHT22;22650;49.350;20.898;2022-12-07T01:57:28;2.20;99.90
36654;DHT22;22650;49.350;20.898;2022-12-07T02:00:04;2.20;99.90
36654;DHT22;22650;49.350;20.898;2022-12-07T02:02:48;2.20;99.90
36654;DHT22;22650;49.350;20.898;2022-12-07T02:05:25;2.20;99.90
36654;DHT22;22650;49.350;20.898;2022-12-07T02:08:00;2.20;99.90
36654;DHT22;22650;49.350;20.898;2022-12-07T02:10:34;2.20;99.90
36654;DHT22;22650;49.350;20.898;2022-12-07T02:13:11;2.20;99.90
36654;DHT22;22650;49.350;20.898;2022-12-07T02:15:55;2.20;99.90
36654;DHT22;22650;49.350;20.898;2022-12-07T02:18:38;2.20;99.90
36654;DHT22;22650;49.350;20.898;2022-12-07T02:21:20;2.20;99.90
36654;DHT22;22650;49.350;20.898;2022-12-07T02:24:14;2.10;99.90
36654;DHT22;22650;49.350;20.898;2022-12-07T02:29:58;2.10;99.90
36654;DHT22;22650;49.350;20.898;2022-12-07T02:32:42;2.10;99.90
36654;DHT22;22650;49.350;20.898;2022-12-07T02:35:19;2.10;99.90
36654;DHT22;22650;49.350;20.898;2022-12-07T02:37:59;2.10;99.90
36654;DHT22;22650;49.350;20.898;2022-12-07T02:40:38;2.10;99.90
36654;DHT22;22650;49.350;20.898;2022-12-07T02:43:19;2.10;99.90
36654;DHT22;22650;49.350;20.898;2022-12-07T02:45:57;2.10;99.90
36654;DHT22;22650;49.350;20.898;2022-12-07T02:48:32;2.10;99.90
36654;DHT22;22650;49.350;20.898;2022-12-07T02:51:06;2.10;99.90
36654;DHT22;22650;49.350;20.898;2022-12-07T02:53:41;2.10;99.90
36654;DHT22;22650;49.350;20.898;2022-12-07T02:56:24;2.10;99.90
36654;DHT22;22650;49.350;20.898;2022-12-07T02:59:09;2.10;99.90
36654;DHT22;22650;49.350;20.898;2022-12-07T03:01:52;2.00;99.90
36654;DHT22;22650;49.350;20.898;2022-12-07T03:04:39;2.00;99.90
36654;DHT22;22650;49.350;20.898;2022-12-07T03:07:23;2.00;99.90
36654;DHT22;22650;49.350;20.898;2022-12-07T03:10:03;2.00;99.90
36654;DHT22;22650;49.350;20.898;2022-12-07T03:12:45;2.10;99.90
36654;DHT22;22650;49.350;20.898;2022-12-07T03:15:25;2.10;99.90
36654;DHT22;22650;49.350;20.898;2022-12-07T03:18:03;2.10;99.90
36654;DHT22;22650;49.350;20.898;2022-12-07T03:20:39;2.10;99.90
36654;DHT22;22650;49.350;20.898;2022-12-07T03:23:16;2.10;99.90
36654;DHT22;22650;49.350;20.898;2022-12-07T03:25:52;2.00;99.90
36654;DHT22;22650;49.350;20.898;2022-12-07T03:28:34;2.10;99.90
36654;DHT22;22650;49.350;20.898;2022-12-07T03:31:13;2.10;99.90
36654;DHT22;22650;49.350;20.898;2022-12-07T03:33:55;2.10;99.90
36654;DHT22;22650;49.350;20.898;2022-12-07T03:36:34;2.10;99.90
36654;DHT22;22650;49.350;20.898;2022-12-07T03:39:16;2.20;99.90
36654;DHT22;22650;49.350;20.898;2022-12-07T03:41:52;2.20;99.90
36654;DHT22;22650;49.350;20.898;2022-12-07T03:44:26;2.20;99.90
36654;DHT22;22650;49.350;20.898;2022-12-07T03:47:02;2.20;99.90
36654;DHT22;22650;49.350;20.898;2022-12-07T03:49:43;2.20;99.90
36654;DHT22;22650;49.350;20.898;2022-12-07T03:52:24;2.20;99.90
36654;DHT22;22650;49.350;20.898;2022-12-07T03:55:01;2.20;99.90
36654;DHT22;22650;49.350;20.898;2022-12-07T03:57:38;2.20;99.90
36654;DHT22;22650;49.350;20.898;2022-12-07T04:00:13;2.20;99.90
36654;DHT22;22650;49.350;20.898;2022-12-07T04:02:47;2.20;99.90
36654;DHT22;22650;49.350;20.898;2022-12-07T04:05:22;2.20;99.90
36654;DHT22;22650;49.350;20.898;2022-12-07T04:07:56;2.20;99.90
36654;DHT22;22650;49.350;20.898;2022-12-07T04:10:30;2.20;99.90
36654;DHT22;22650;49.350;20.898;2022-12-07T04:13:03;2.20;99.90
36654;DHT22;22650;49.350;20.898;2022-12-07T04:15:37;2.20;99.90
36654;DHT22;22650;49.350;20.898;2022-12-07T04:18:10;2.20;99.90
36654;DHT22;22650;49.350;20.898;2022-12-07T04:20:45;2.10;99.90
36654;DHT22;22650;49.350;20.898;2022-12-07T04:23:19;2.20;99.90
36654;DHT22;22650;49.350;20.898;2022-12-07T04:25:52;2.10;99.90
36654;DHT22;22650;49.350;20.898;2022-12-07T04:28:25;2.10;99.90
36654;DHT22;22650;49.350;20.898;2022-12-07T04:30:59;2.10;99.90
36654;DHT22;22650;49.350;20.898;2022-12-07T04:33:32;2.10;99.90
36654;DHT22;22650;49.350;20.898;2022-12-07T04:36:07;2.10;99.90
36654;DHT22;22650;49.350;20.898;2022-12-07T04:38:41;2.10;99.90
36654;DHT22;22650;49.350;20.898;2022-12-07T04:41:14;2.10;99.90
36654;DHT22;22650;49.350;20.898;2022-12-07T04:43:47;2.10;99.90
36654;DHT22;22650;49.350;20.898;2022-12-07T04:46:21;2.10;99.90
36654;DHT22;22650;49.350;20.898;2022-12-07T04:48:55;2.10;99.90
36654;DHT22;22650;49.350;20.898;2022-12-07T04:51:30;2.10;99.90
36654;DHT22;22650;49.350;20.898;2022-12-07T04:54:04;2.20;99.90
36654;DHT22;22650;49.350;20.898;2022-12-07T04:56:37;2.10;99.90
36654;DHT22;22650;49.350;20.898;2022-12-07T04:59:12;2.20;99.90
36654;DHT22;22650;49.350;20.898;2022-12-07T05:01:46;2.20;99.90
36654;DHT22;22650;49.350;20.898;2022-12-07T05:04:19;2.20;99.90
36654;DHT22;22650;49.350;20.898;2022-12-07T05:06:54;2.20;99.90
36654;DHT22;22650;49.350;20.898;2022-12-07T05:09:28;2.20;99.90
36654;DHT22;22650;49.350;20.898;2022-12-07T05:12:01;2.20;99.90
36654;DHT22;22650;49.350;20.898;2022-12-07T05:14:34;2.20;99.90
36654;DHT22;22650;49.350;20.898;2022-12-07T05:17:08;2.20;99.90
36654;DHT22;22650;49.350;20.898;2022-12-07T05:19:41;2.20;99.90
36654;DHT22;22650;49.350;20.898;2022-12-07T05:22:16;2.20;99.90
36654;DHT22;22650;49.350;20.898;2022-12-07T05:24:50;2.20;99.90
36654;DHT22;22650;49.350;20.898;2022-12-07T05:27:23;2.20;99.90
36654;DHT22;22650;49.350;20.898;2022-12-07T05:29:56;2.20;99.90
36654;DHT22;22650;49.350;20.898;2022-12-07T05:32:30;2.30;99.90
36654;DHT22;22650;49.350;20.898;2022-12-07T05:35:04;2.30;99.90
36654;DHT22;22650;49.350;20.898;2022-12-07T05:37:39;2.30;99.90
36654;DHT22;22650;49.350;20.898;2022-12-07T05:40:14;2.30;99.90
36654;DHT22;22650;49.350;20.898;2022-12-07T05:42:48;2.30;99.90
36654;DHT22;22650;49.350;20.898;2022-12-07T05:45:21;2.30;99.90
36654;DHT22;22650;49.350;20.898;2022-12-07T05:47:55;2.30;99.90
36654;DHT22;22650;49.350;20.898;2022-12-07T05:50:28;2.30;99.90
36654;DHT22;22650;49.350;20.898;2022-12-07T05:53:06;2.30;99.90
36654;DHT22;22650;49.350;20.898;2022-12-07T05:55:39;2.20;99.90
36654;DHT22;22650;49.350;20.898;2022-12-07T05:58:13;2.30;99.90
36654;DHT22;22650;49.350;20.898;2022-12-07T06:01:04;2.20;99.90
36654;DHT22;22650;49.350;20.898;2022-12-07T06:03:37;2.20;99.90
36654;DHT22;22650;49.350;20.898;2022-12-07T06:06:11;2.20;99.90
36654;DHT22;22650;49.350;20.898;2022-12-07T06:08:45;2.30;99.90
36654;DHT22;22650;49.350;20.898;2022-12-07T06:11:19;2.20;99.90
36654;DHT22;22650;49.350;20.898;2022-12-07T06:14:09;2.20;99.90
36654;DHT22;22650;49.350;20.898;2022-12-07T06:16:43;2.20;99.90
36654;DHT22;22650;49.350;20.898;2022-12-07T06:19:17;2.20;99.90
36654;DHT22;22650;49.350;20.898;2022-12-07T06:21:50;2.20;99.90
36654;DHT22;22650;49.350;20.898;2022-12-07T06:24:25;2.20;99.90
36654;DHT22;22650;49.350;20.898;2022-12-07T06:26:59;2.20;99.90
36654;DHT22;22650;49.350;20.898;2022-12-07T06:29:32;2.20;99.90
36654;DHT22;22650;49.350;20.898;2022-12-07T06:32:06;2.20;99.90
36654;DHT22;22650;49.350;20.898;2022-12-07T06:34:39;2.20;99.90
36654;DHT22;22650;49.350;20.898;2022-12-07T06:37:13;2.20;99.90
36654;DHT22;22650;49.350;20.898;2022-12-07T06:39:48;2.20;99.90
36654;DHT22;22650;49.350;20.898;2022-12-07T06:42:21;2.20;99.90
36654;DHT22;22650;49.350;20.898;2022-12-07T06:44:54;2.30;99.90
36654;DHT22;22650;49.350;20.898;2022-12-07T06:47:27;2.30;99.90
36654;DHT22;22650;49.350;20.898;2022-12-07T06:50:17;2.30;99.90
36654;DHT22;22650;49.350;20.898;2022-12-07T06:52:51;2.30;99.90
36654;DHT22;22650;49.350;20.898;2022-12-07T06:55:25;2.20;99.90
36654;DHT22;22650;49.350;20.898;2022-12-07T06:57:59;2.30;99.90
36654;DHT22;22650;49.350;20.898;2022-12-07T07:00:33;2.30;99.90
36654;DHT22;22650;49.350;20.898;2022-12-07T07:03:07;2.30;99.90
36654;DHT22;22650;49.350;20.898;2022-12-07T07:05:41;2.30;99.90
36654;DHT22;22650;49.350;20.898;2022-12-07T07:08:15;2.30;99.90
36654;DHT22;22650;49.350;20.898;2022-12-07T07:10:55;2.30;99.90
36654;DHT22;22650;49.350;20.898;2022-12-07T07:13:28;2.30;99.90
36654;DHT22;22650;49.350;20.898;2022-12-07T07:16:02;2.30;99.90
36654;DHT22;22650;49.350;20.898;2022-12-07T07:18:35;2.30;99.90
36654;DHT22;22650;49.350;20.898;2022-12-07T07:21:09;2.30;99.90
36654;DHT22;22650;49.350;20.898;2022-12-07T07:23:42;2.30;99.90
36654;DHT22;22650;49.350;20.898;2022-12-07T07:26:17;2.30;99.90
36654;DHT22;22650;49.350;20.898;2022-12-07T07:28:54;2.30;99.90
36654;DHT22;22650;49.350;20.898;2022-12-07T07:31:27;2.40;99.90
36654;DHT22;22650;49.350;20.898;2022-12-07T07:34:01;2.40;99.90
36654;DHT22;22650;49.350;20.898;2022-12-07T07:36:34;2.40;99.90
36654;DHT22;22650;49.350;20.898;2022-12-07T07:39:09;2.40;99.90
36654;DHT22;22650;49.350;20.898;2022-12-07T07:41:46;2.40;99.90
36654;DHT22;22650;49.350;20.898;2022-12-07T07:44:28;2.50;99.90
36654;DHT22;22650;49.350;20.898;2022-12-07T07:47:06;2.50;99.90
36654;DHT22;22650;49.350;20.898;2022-12-07T07:49:39;2.50;99.90
36654;DHT22;22650;49.350;20.898;2022-12-07T07:52:19;2.50;99.90
36654;DHT22;22650;49.350;20.898;2022-12-07T07:54:52;2.50;99.90
36654;DHT22;22650;49.350;20.898;2022-12-07T07:57:27;2.60;99.90
36654;DHT22;22650;49.350;20.898;2022-12-07T08:00:00;2.50;99.90
36654;DHT22;22650;49.350;20.898;2022-12-07T08:02:45;2.60;99.90
36654;DHT22;22650;49.350;20.898;2022-12-07T08:05:19;2.60;99.90
36654;DHT22;22650;49.350;20.898;2022-12-07T08:07:52;2.60;99.90
36654;DHT22;22650;49.350;20.898;2022-12-07T08:10:25;2.60;99.90
36654;DHT22;22650;49.350;20.898;2022-12-07T08:13:00;2.60;99.90
36654;DHT22;22650;49.350;20.898;2022-12-07T08:15:47;2.60;99.90
36654;DHT22;22650;49.350;20.898;2022-12-07T08:18:21;2.60;99.90
36654;DHT22;22650;49.350;20.898;2022-12-07T08:20:59;2.70;99.90
36654;DHT22;22650;49.350;20.898;2022-12-07T08:23:33;2.70;99.90
36654;DHT22;22650;49.350;20.898;2022-12-07T08:26:13;2.70;99.90
36654;DHT22;22650;49.350;20.898;2022-12-07T08:28:48;2.80;99.90
36654;DHT22;22650;49.350;20.898;2022-12-07T08:31:22;2.80;99.90
36654;DHT22;22650;49.350;20.898;2022-12-07T08:33:56;2.80;99.90
36654;DHT22;22650;49.350;20.898;2022-12-07T08:36:29;2.80;99.90
36654;DHT22;22650;49.350;20.898;2022-12-07T08:39:02;2.80;99.90
36654;DHT22;22650;49.350;20.898;2022-12-07T08:41:56;2.80;99.90
36654;DHT22;22650;49.350;20.898;2022-12-07T08:44:30;2.80;99.90
36654;DHT22;22650;49.350;20.898;2022-12-07T08:47:06;2.80;99.90
36654;DHT22;22650;49.350;20.898;2022-12-07T08:49:43;2.80;99.90
36654;DHT22;22650;49.350;20.898;2022-12-07T08:52:18;2.90;99.90
36654;DHT22;22650;49.350;20.898;2022-12-07T08:54:51;2.90;99.90
36654;DHT22;22650;49.350;20.898;2022-12-07T08:57:25;2.90;99.90
36654;DHT22;22650;49.350;20.898;2022-12-07T09:00:01;2.90;99.90
36654;DHT22;22650;49.350;20.898;2022-12-07T09:02:35;2.80;99.90
36654;DHT22;22650;49.350;20.898;2022-12-07T09:05:08;2.80;99.90
36654;DHT22;22650;49.350;20.898;2022-12-07T09:07:50;2.90;99.90
36654;DHT22;22650;49.350;20.898;2022-12-07T09:10:24;2.90;99.90
36654;DHT22;22650;49.350;20.898;2022-12-07T09:12:58;2.90;99.90
36654;DHT22;22650;49.350;20.898;2022-12-07T09:15:34;2.90;99.90
36654;DHT22;22650;49.350;20.898;2022-12-07T09:18:07;2.90;99.90
36654;DHT22;22650;49.350;20.898;2022-12-07T09:20:41;2.90;99.90
36654;DHT22;22650;49.350;20.898;2022-12-07T09:23:14;2.90;99.90
36654;DHT22;22650;49.350;20.898;2022-12-07T09:25:47;2.90;99.90
36654;DHT22;22650;49.350;20.898;2022-12-07T09:28:21;3.00;99.90
36654;DHT22;22650;49.350;20.898;2022-12-07T09:30:55;3.00;99.90
36654;DHT22;22650;49.350;20.898;2022-12-07T09:33:53;3.00;99.90
36654;DHT22;22650;49.350;20.898;2022-12-07T09:36:27;3.00;99.90
36654;DHT22;22650;49.350;20.898;2022-12-07T09:39:01;3.00;99.90
36654;DHT22;22650;49.350;20.898;2022-12-07T09:41:38;3.00;99.90
36654;DHT22;22650;49.350;20.898;2022-12-07T09:44:13;3.00;99.90
36654;DHT22;22650;49.350;20.898;2022-12-07T09:46:49;3.00;99.90
36654;DHT22;22650;49.350;20.898;2022-12-07T09:49:24;3.00;99.90
36654;DHT22;22650;49.350;20.898;2022-12-07T09:52:04;3.00;99.90
36654;DHT22;22650;49.350;20.898;2022-12-07T09:54:50;3.10;99.90
36654;DHT22;22650;49.350;20.898;2022-12-07T09:57:28;3.10;99.90
36654;DHT22;22650;49.350;20.898;2022-12-07T10:00:06;3.10;99.90
36654;DHT22;22650;49.350;20.898;2022-12-07T10:02:42;3.10;99.90
36654;DHT22;22650;49.350;20.898;2022-12-07T10:05:21;3.10;99.90
36654;DHT22;22650;49.350;20.898;2022-12-07T10:07:56;3.10;99.90
36654;DHT22;22650;49.350;20.898;2022-12-07T10:10:31;3.10;99.90
36654;DHT22;22650;49.350;20.898;2022-12-07T10:13:10;3.20;99.90
36654;DHT22;22650;49.350;20.898;2022-12-07T10:15:49;3.10;99.90
36654;DHT22;22650;49.350;20.898;2022-12-07T10:18:31;3.20;99.90
36654;DHT22;22650;49.350;20.898;2022-12-07T10:21:11;3.10;99.90
36654;DHT22;22650;49.350;20.898;2022-12-07T10:24:00;3.10;99.90
36654;DHT22;22650;49.350;20.898;2022-12-07T10:26:35;3.10;99.90
36654;DHT22;22650;49.350;20.898;2022-12-07T10:29:16;3.20;99.90
36654;DHT22;22650;49.350;20.898;2022-12-07T10:31:54;3.20;99.90
36654;DHT22;22650;49.350;20.898;2022-12-07T10:34:32;3.20;99.90
36654;DHT22;22650;49.350;20.898;2022-12-07T10:37:18;3.20;99.90
36654;DHT22;22650;49.350;20.898;2022-12-07T10:39:53;3.20;99.90
36654;DHT22;22650;49.350;20.898;2022-12-07T10:42:28;3.20;99.90
36654;DHT22;22650;49.350;20.898;2022-12-07T10:45:13;3.20;99.90
36654;DHT22;22650;49.350;20.898;2022-12-07T10:47:49;3.30;99.90
36654;DHT22;22650;49.350;20.898;2022-12-07T10:50:43;3.20;99.90
36654;DHT22;22650;49.350;20.898;2022-12-07T10:53:31;3.30;99.90
36654;DHT22;22650;49.350;20.898;2022-12-07T10:56:32;3.20;99.90
36654;DHT22;22650;49.350;20.898;2022-12-07T10:59:23;3.30;99.90
36654;DHT22;22650;49.350;20.898;2022-12-07T11:02:06;3.30;99.90
36654;DHT22;22650;49.350;20.898;2022-12-07T11:05:02;3.30;99.90
36654;DHT22;22650;49.350;20.898;2022-12-07T11:07:45;3.40;99.90
36654;DHT22;22650;49.350;20.898;2022-12-07T11:10:35;3.40;99.90
36654;DHT22;22650;49.350;20.898;2022-12-07T11:13:25;3.50;99.90
36654;DHT22;22650;49.350;20.898;2022-12-07T11:16:19;3.50;99.90
36654;DHT22;22650;49.350;20.898;2022-12-07T11:19:14;3.60;99.90
36654;DHT22;22650;49.350;20.898;2022-12-07T11:22:02;3.60;99.90
36654;DHT22;22650;49.350;20.898;2022-12-07T11:24:45;3.70;99.90
36654;DHT22;22650;49.350;20.898;2022-12-07T11:27:26;3.70;99.90
36654;DHT22;22650;49.350;20.898;2022-12-07T11:30:16;3.70;99.90
36654;DHT22;22650;49.350;20.898;2022-12-07T11:33:13;3.80;99.90
36654;DHT22;22650;49.350;20.898;2022-12-07T11:36:02;3.80;99.90
36654;DHT22;22650;49.350;20.898;2022-12-07T11:38:41;3.80;99.90
36654;DHT22;22650;49.350;20.898;2022-12-07T11:41:21;3.90;99.90
36654;DHT22;22650;49.350;20.898;2022-12-07T11:44:00;3.90;99.90
36654;DHT22;22650;49.350;20.898;2022-12-07T11:46:45;4.00;99.90
36654;DHT22;22650;49.350;20.898;2022-12-07T11:49:26;4.00;99.90
36654;DHT22;22650;49.350;20.898;2022-12-07T11:52:04;4.00;99.90
36654;DHT22;22650;49.350;20.898;2022-12-07T11:54:41;4.10;99.90
36654;DHT22;22650;49.350;20.898;2022-12-07T11:57:20;4.10;99.90
36654;DHT22;22650;49.350;20.898;2022-12-07T12:00:00;4.20;99.90
36654;DHT22;22650;49.350;20.898;2022-12-07T12:02:39;4.20;99.90
36654;DHT22;22650;49.350;20.898;2022-12-07T12:05:18;4.30;99.90
36654;DHT22;22650;49.350;20.898;2022-12-07T12:08:03;4.30;99.90
36654;DHT22;22650;49.350;20.898;2022-12-07T12:11:02;4.30;99.90
36654;DHT22;22650;49.350;20.898;2022-12-07T12:17:21;4.40;99.90
36654;DHT22;22650;49.350;20.898;2022-12-07T12:20:04;4.40;99.90
36654;DHT22;22650;49.350;20.898;2022-12-07T12:22:42;4.40;99.90
36654;DHT22;22650;49.350;20.898;2022-12-07T12:25:19;4.40;99.90
36654;DHT22;22650;49.350;20.898;2022-12-07T12:27:57;4.40;99.90
36654;DHT22;22650;49.350;20.898;2022-12-07T12:30:35;4.40;99.90
36654;DHT22;22650;49.350;20.898;2022-12-07T12:33:14;4.30;99.90
36654;DHT22;22650;49.350;20.898;2022-12-07T12:39:11;4.20;99.90
36654;DHT22;22650;49.350;20.898;2022-12-07T12:41:54;4.20;99.90
36654;DHT22;22650;49.350;20.898;2022-12-07T12:47:57;4.10;99.90
36654;DHT22;22650;49.350;20.898;2022-12-07T12:50:32;4.10;99.90
36654;DHT22;22650;49.350;20.898;2022-12-07T12:53:15;4.10;99.90
36654;DHT22;22650;49.350;20.898;2022-12-07T12:56:20;4.10;99.90
36654;DHT22;22650;49.350;20.898;2022-12-07T12:59:25;4.10;99.90
36654;DHT22;22650;49.350;20.898;2022-12-07T13:02:19;4.00;99.90
36654;DHT22;22650;49.350;20.898;2022-12-07T13:04:55;3.90;99.90
36654;DHT22;22650;49.350;20.898;2022-12-07T13:07:57;3.90;99.90
36654;DHT22;22650;49.350;20.898;2022-12-07T13:10:42;3.80;99.90
36654;DHT22;22650;49.350;20.898;2022-12-07T13:13:32;3.80;99.90
36654;DHT22;22650;49.350;20.898;2022-12-07T13:16:36;3.80;99.90
36654;DHT22;22650;49.350;20.898;2022-12-07T13:25:41;3.90;99.90
36654;DHT22;22650;49.350;20.898;2022-12-07T13:28:31;3.90;99.90
36654;DHT22;22650;49.350;20.898;2022-12-07T13:31:28;3.90;99.90
36654;DHT22;22650;49.350;20.898;2022-12-07T13:34:05;3.90;99.90
36654;DHT22;22650;49.350;20.898;2022-12-07T13:36:59;3.90;99.90
36654;DHT22;22650;49.350;20.898;2022-12-07T13:39:33;3.90;99.90
36654;DHT22;22650;49.350;20.898;2022-12-07T13:42:16;3.90;99.90
36654;DHT22;22650;49.350;20.898;2022-12-07T13:44:53;3.90;99.90
36654;DHT22;22650;49.350;20.898;2022-12-07T13:47:34;3.90;99.90
36654;DHT22;22650;49.350;20.898;2022-12-07T13:50:23;3.80;99.90
36654;DHT22;22650;49.350;20.898;2022-12-07T13:52:58;3.80;99.90
36654;DHT22;22650;49.350;20.898;2022-12-07T13:55:32;3.80;99.90
36654;DHT22;22650;49.350;20.898;2022-12-07T13:58:08;3.70;99.90
36654;DHT22;22650;49.350;20.898;2022-12-07T14:00:42;3.70;99.90
36654;DHT22;22650;49.350;20.898;2022-12-07T14:03:32;3.70;99.90
36654;DHT22;22650;49.350;20.898;2022-12-07T14:06:23;3.70;99.90
36654;DHT22;22650;49.350;20.898;2022-12-07T14:09:18;3.70;99.90
36654;DHT22;22650;49.350;20.898;2022-12-07T14:11:53;3.60;99.90
36654;DHT22;22650;49.350;20.898;2022-12-07T14:14:29;3.60;99.90
36654;DHT22;22650;49.350;20.898;2022-12-07T14:17:12;3.60;99.90
36654;DHT22;22650;49.350;20.898;2022-12-07T14:19:51;3.50;99.90
36654;DHT22;22650;49.350;20.898;2022-12-07T14:22:29;3.50;99.90
36654;DHT22;22650;49.350;20.898;2022-12-07T14:25:19;3.40;99.90
36654;DHT22;22650;49.350;20.898;2022-12-07T14:27:55;3.40;99.90
36654;DHT22;22650;49.350;20.898;2022-12-07T14:30:30;3.40;99.90
36654;DHT22;22650;49.350;20.898;2022-12-07T14:33:08;3.40;99.90
36654;DHT22;22650;49.350;20.898;2022-12-07T14:35:42;3.40;99.90
36654;DHT22;22650;49.350;20.898;2022-12-07T14:38:16;3.40;99.90
36654;DHT22;22650;49.350;20.898;2022-12-07T14:40:50;3.30;99.90
36654;DHT22;22650;49.350;20.898;2022-12-07T14:43:24;3.30;99.90
36654;DHT22;22650;49.350;20.898;2022-12-07T14:45:58;3.30;99.90
36654;DHT22;22650;49.350;20.898;2022-12-07T14:48:31;3.30;99.90
36654;DHT22;22650;49.350;20.898;2022-12-07T14:51:26;3.20;99.90
36654;DHT22;22650;49.350;20.898;2022-12-07T14:54:20;3.20;99.90
36654;DHT22;22650;49.350;20.898;2022-12-07T14:56:55;3.20;99.90
36654;DHT22;22650;49.350;20.898;2022-12-07T14:59:28;3.20;99.90
36654;DHT22;22650;49.350;20.898;2022-12-07T15:02:02;3.20;99.90
36654;DHT22;22650;49.350;20.898;2022-12-07T15:04:35;3.20;99.90
36654;DHT22;22650;49.350;20.898;2022-12-07T15:07:15;3.20;99.90
36654;DHT22;22650;49.350;20.898;2022-12-07T15:09:51;3.20;99.90
36654;DHT22;22650;49.350;20.898;2022-12-07T15:12:24;3.10;99.90
36654;DHT22;22650;49.350;20.898;2022-12-07T15:14:57;3.10;99.90
36654;DHT22;22650;49.350;20.898;2022-12-07T15:17:31;3.10;99.90
36654;DHT22;22650;49.350;20.898;2022-12-07T15:20:07;3.10;99.90
36654;DHT22;22650;49.350;20.898;2022-12-07T15:22:45;3.00;99.90
36654;DHT22;22650;49.350;20.898;2022-12-07T15:25:18;3.00;99.90
36654;DHT22;22650;49.350;20.898;2022-12-07T15:27:51;3.00;99.90
36654;DHT22;22650;49.350;20.898;2022-12-07T15:30:24;3.00;99.90
36654;DHT22;22650;49.350;20.898;2022-12-07T15:32:58;2.90;99.90
36654;DHT22;22650;49.350;20.898;2022-12-07T15:35:31;2.90;99.90
36654;DHT22;22650;49.350;20.898;2022-12-07T15:38:06;2.90;99.90
36654;DHT22;22650;49.350;20.898;2022-12-07T15:40:40;3.00;99.90
36654;DHT22;22650;49.350;20.898;2022-12-07T15:43:13;2.90;99.90
36654;DHT22;22650;49.350;20.898;2022-12-07T15:46:00;2.90;99.90
36654;DHT22;22650;49.350;20.898;2022-12-07T15:48:34;2.80;99.90
36654;DHT22;22650;49.350;20.898;2022-12-07T15:51:08;2.80;99.90
36654;DHT22;22650;49.350;20.898;2022-12-07T15:53:43;2.80;99.90
36654;DHT22;22650;49.350;20.898;2022-12-07T15:56:16;2.80;99.90
36654;DHT22;22650;49.350;20.898;2022-12-07T15:58:50;2.70;99.90
36654;DHT22;22650;49.350;20.898;2022-12-07T16:01:23;2.70;99.90
36654;DHT22;22650;49.350;20.898;2022-12-07T16:03:57;2.70;99.90
36654;DHT22;22650;49.350;20.898;2022-12-07T16:06:32;2.60;99.90
36654;DHT22;22650;49.350;20.898;2022-12-07T16:09:07;2.60;99.90
36654;DHT22;22650;49.350;20.898;2022-12-07T16:11:40;2.50;99.90
36654;DHT22;22650;49.350;20.898;2022-12-07T16:14:14;2.50;99.90
36654;DHT22;22650;49.350;20.898;2022-12-07T16:16:48;2.40;99.90
36654;DHT22;22650;49.350;20.898;2022-12-07T16:19:21;2.40;99.90
36654;DHT22;22650;49.350;20.898;2022-12-07T16:21:55;2.40;99.90
36654;DHT22;22650;49.350;20.898;2022-12-07T16:24:30;2.30;99.90
36654;DHT22;22650;49.350;20.898;2022-12-07T16:27:03;2.20;99.90
36654;DHT22;22650;49.350;20.898;2022-12-07T16:29:36;2.10;99.90
36654;DHT22;22650;49.350;20.898;2022-12-07T16:32:10;2.10;99.90
36654;DHT22;22650;49.350;20.898;2022-12-07T16:34:43;2.10;99.90
36654;DHT22;22650;49.350;20.898;2022-12-07T16:37:16;2.00;99.90
36654;DHT22;22650;49.350;20.898;2022-12-07T16:39:51;2.00;99.90
36654;DHT22;22650;49.350;20.898;2022-12-07T16:42:24;1.90;99.90
36654;DHT22;22650;49.350;20.898;2022-12-07T16:44:58;1.80;99.90
36654;DHT22;22650;49.350;20.898;2022-12-07T16:47:32;1.80;99.90
36654;DHT22;22650;49.350;20.898;2022-12-07T16:50:06;1.80;99.90
36654;DHT22;22650;49.350;20.898;2022-12-07T16:52:40;1.70;99.90
36654;DHT22;22650;49.350;20.898;2022-12-07T16:55:15;1.70;99.90